sensor_id;sensor_type;location;lat;lon;timestamp;temperature;humidity
70107;DHT22;57473;37.508;15.080;2023-04-03T00:01:09;12.50;99.90
70107;DHT22;57473;37.508;15.080;2023-04-03T00:03:37;12.60;99.90
70107;DHT22;57473;37.508;15.080;2023-04-03T00:06:05;12.60;99.90
70107;DHT22;57473;37.508;15.080;2023-04-03T00:08:34;12.60;99.90
70107;DHT22;57473;37.508;15.080;2023-04-03T00:11:02;12.60;99.90
70107;DHT22;57473;37.508;15.080;2023-04-03T00:13:30;12.60;99.90
70107;DHT22;57473;37.508;15.080;2023-04-03T00:15:57;12.60;99.90
70107;DHT22;57473;37.508;15.080;2023-04-03T00:18:24;12.50;99.90
70107;DHT22;57473;37.508;15.080;2023-04-03T00:20:52;12.60;99.90
70107;DHT22;57473;37.508;15.080;2023-04-03T00:23:19;12.50;99.90
70107;DHT22;57473;37.508;15.080;2023-04-03T00:25:46;12.50;99.90
70107;DHT22;57473;37.508;15.080;2023-04-03T00:28:14;12.50;99.90
70107;DHT22;57473;37.508;15.080;2023-04-03T00:30:41;12.50;99.90
70107;DHT22;57473;37.508;15.080;2023-04-03T00:33:12;12.50;99.90
70107;DHT22;57473;37.508;15.080;2023-04-03T00:35:40;12.50;99.90
70107;DHT22;57473;37.508;15.080;2023-04-03T00:38:07;12.40;99.90
70107;DHT22;57473;37.508;15.080;2023-04-03T00:40:37;12.40;99.90
70107;DHT22;57473;37.508;15.080;2023-04-03T00:43:25;12.40;99.90
70107;DHT22;57473;37.508;15.080;2023-04-03T00:45:57;12.40;99.90
70107;DHT22;57473;37.508;15.080;2023-04-03T00:48:34;12.30;99.90
70107;DHT22;57473;37.508;15.080;2023-04-03T00:51:05;12.30;99.90
70107;DHT22;57473;37.508;15.080;2023-04-03T00:53:41;12.30;99.90
70107;DHT22;57473;37.508;15.080;2023-04-03T00:56:13;12.20;99.90
70107;DHT22;57473;37.508;15.080;2023-04-03T00:58:46;12.20;99.90
70107;DHT22;57473;37.508;15.080;2023-04-03T01:01:18;12.20;99.90
70107;DHT22;57473;37.508;15.080;2023-04-03T01:03:47;12.20;99.90
70107;DHT22;57473;37.508;15.080;2023-04-03T01:06:17;12.20;99.90
70107;DHT22;57473;37.508;15.080;2023-04-03T01:08:49;12.30;99.90
70107;DHT22;57473;37.508;15.080;2023-04-03T01:11:18;12.30;99.90
70107;DHT22;57473;37.508;15.080;2023-04-03T01:13:48;12.30;99.90
70107;DHT22;57473;37.508;15.080;2023-04-03T01:16:16;12.30;99.90
70107;DHT22;57473;37.508;15.080;2023-04-03T01:18:44;12.30;99.90
70107;DHT22;57473;37.508;15.080;2023-04-03T01:26:58;12.40;99.90
70107;DHT22;57473;37.508;15.080;2023-04-03T01:29:26;12.40;99.90
70107;DHT22;57473;37.508;15.080;2023-04-03T01:31:58;12.40;99.90
70107;DHT22;57473;37.508;15.080;2023-04-03T01:34:26;12.40;99.90
70107;DHT22;57473;37.508;15.080;2023-04-03T01:36:54;12.40;99.90
70107;DHT22;57473;37.508;15.080;2023-04-03T01:39:22;12.30;99.90
70107;DHT22;57473;37.508;15.080;2023-04-03T01:41:50;12.30;99.90
70107;DHT22;57473;37.508;15.080;2023-04-03T01:44:24;12.30;99.90
70107;DHT22;57473;37.508;15.080;2023-04-03T01:46:52;12.30;99.90
70107;DHT22;57473;37.508;15.080;2023-04-03T01:49:20;12.30;99.90
70107;DHT22;57473;37.508;15.080;2023-04-03T01:51:47;12.20;99.90
70107;DHT22;57473;37.508;15.080;2023-04-03T01:54:15;12.20;99.90
70107;DHT22;57473;37.508;15.080;2023-04-03T01:56:43;12.20;99.90
70107;DHT22;57473;37.508;15.080;2023-04-03T01:59:10;12.10;99.90
70107;DHT22;57473;37.508;15.080;2023-04-03T02:01:38;12.10;99.90
70107;DHT22;57473;37.508;15.080;2023-04-03T02:04:05;12.10;99.90
70107;DHT22;57473;37.508;15.080;2023-04-03T02:06:33;12.10;99.90
70107;DHT22;57473;37.508;15.080;2023-04-03T02:09:00;12.10;99.90
70107;DHT22;57473;37.508;15.080;2023-04-03T02:11:30;12.00;99.90
70107;DHT22;57473;37.508;15.080;2023-04-03T02:13:57;12.00;99.90
70107;DHT22;57473;37.508;15.080;2023-04-03T02:16:24;12.00;99.90
70107;DHT22;57473;37.508;15.080;2023-04-03T02:18:51;12.00;99.90
70107;DHT22;57473;37.508;15.080;2023-04-03T02:21:19;11.90;99.90
70107;DHT22;57473;37.508;15.080;2023-04-03T02:23:47;11.80;99.90
70107;DHT22;57473;37.508;15.080;2023-04-03T02:26:15;11.80;99.90
70107;DHT22;57473;37.508;15.080;2023-04-03T02:28:45;11.80;99.90
70107;DHT22;57473;37.508;15.080;2023-04-03T02:31:12;11.80;99.90
70107;DHT22;57473;37.508;15.080;2023-04-03T02:33:41;11.80;99.90
70107;DHT22;57473;37.508;15.080;2023-04-03T02:36:12;11.80;99.90
70107;DHT22;57473;37.508;15.080;2023-04-03T02:38:42;11.80;99.90
70107;DHT22;57473;37.508;15.080;2023-04-03T02:41:11;11.80;99.90
70107;DHT22;57473;37.508;15.080;2023-04-03T02:43:38;11.80;99.90
70107;DHT22;57473;37.508;15.080;2023-04-03T02:46:06;11.80;99.90
70107;DHT22;57473;37.508;15.080;2023-04-03T02:48:34;11.80;99.90
70107;DHT22;57473;37.508;15.080;2023-04-03T02:51:02;11.80;99.90
70107;DHT22;57473;37.508;15.080;2023-04-03T02:53:29;11.80;99.90
70107;DHT22;57473;37.508;15.080;2023-04-03T02:55:58;11.80;99.90
70107;DHT22;57473;37.508;15.080;2023-04-03T02:58:26;11.80;99.90
70107;DHT22;57473;37.508;15.080;2023-04-03T03:00:56;11.80;99.90
70107;DHT22;57473;37.508;15.080;2023-04-03T03:03:23;11.90;99.90
70107;DHT22;57473;37.508;15.080;2023-04-03T03:06:03;11.90;99.90
70107;DHT22;57473;37.508;15.080;2023-04-03T03:08:33;11.90;99.90
70107;DHT22;57473;37.508;15.080;2023-04-03T03:11:01;11.90;99.90
70107;DHT22;57473;37.508;15.080;2023-04-03T03:13:28;11.90;99.90
70107;DHT22;57473;37.508;15.080;2023-04-03T03:15:56;11.90;99.90
70107;DHT22;57473;37.508;15.080;2023-04-03T03:18:23;11.80;99.90
70107;DHT22;57473;37.508;15.080;2023-04-03T03:20:56;11.80;99.90
70107;DHT22;57473;37.508;15.080;2023-04-03T03:23:25;11.80;99.90
70107;DHT22;57473;37.508;15.080;2023-04-03T03:26:01;11.80;99.90
70107;DHT22;57473;37.508;15.080;2023-04-03T03:28:28;11.70;99.90
70107;DHT22;57473;37.508;15.080;2023-04-03T03:30:57;11.70;99.90
70107;DHT22;57473;37.508;15.080;2023-04-03T03:33:25;11.70;99.90
70107;DHT22;57473;37.508;15.080;2023-04-03T03:35:53;11.70;99.90
70107;DHT22;57473;37.508;15.080;2023-04-03T03:38:22;11.60;99.90
70107;DHT22;57473;37.508;15.080;2023-04-03T03:40:50;11.60;99.90
70107;DHT22;57473;37.508;15.080;2023-04-03T03:43:20;11.60;99.90
70107;DHT22;57473;37.508;15.080;2023-04-03T03:45:54;11.60;99.90
70107;DHT22;57473;37.508;15.080;2023-04-03T03:48:23;11.60;99.90
70107;DHT22;57473;37.508;15.080;2023-04-03T03:50:51;11.50;99.90
70107;DHT22;57473;37.508;15.080;2023-04-03T03:53:22;11.50;99.90
70107;DHT22;57473;37.508;15.080;2023-04-03T03:55:53;11.50;99.90
70107;DHT22;57473;37.508;15.080;2023-04-03T03:58:23;11.40;99.90
70107;DHT22;57473;37.508;15.080;2023-04-03T04:00:50;11.40;99.90
70107;DHT22;57473;37.508;15.080;2023-04-03T04:03:17;11.40;99.90
70107;DHT22;57473;37.508;15.080;2023-04-03T04:05:47;11.40;99.90
70107;DHT22;57473;37.508;15.080;2023-04-03T04:08:15;11.40;99.90
70107;DHT22;57473;37.508;15.080;2023-04-03T04:10:44;11.40;99.90
70107;DHT22;57473;37.508;15.080;2023-04-03T04:13:14;11.30;99.80
70107;DHT22;57473;37.508;15.080;2023-04-03T04:15:42;11.40;99.60
70107;DHT22;57473;37.508;15.080;2023-04-03T04:18:09;11.40;99.10
70107;DHT22;57473;37.508;15.080;2023-04-03T04:20:37;11.30;99.10
70107;DHT22;57473;37.508;15.080;2023-04-03T04:23:05;11.40;98.80
70107;DHT22;57473;37.508;15.080;2023-04-03T04:25:32;11.40;98.60
70107;DHT22;57473;37.508;15.080;2023-04-03T04:28:00;11.40;98.20
70107;DHT22;57473;37.508;15.080;2023-04-03T04:30:27;11.40;97.90
70107;DHT22;57473;37.508;15.080;2023-04-03T04:32:56;11.40;97.80
70107;DHT22;57473;37.508;15.080;2023-04-03T04:35:24;11.40;97.60
70107;DHT22;57473;37.508;15.080;2023-04-03T04:37:52;11.50;96.70
70107;DHT22;57473;37.508;15.080;2023-04-03T04:40:20;11.50;97.00
70107;DHT22;57473;37.508;15.080;2023-04-03T04:42:48;11.50;96.70
70107;DHT22;57473;37.508;15.080;2023-04-03T04:45:15;11.60;96.80
70107;DHT22;57473;37.508;15.080;2023-04-03T04:47:45;11.60;96.60
70107;DHT22;57473;37.508;15.080;2023-04-03T04:50:13;11.70;96.20
70107;DHT22;57473;37.508;15.080;2023-04-03T04:52:40;11.70;95.90
70107;DHT22;57473;37.508;15.080;2023-04-03T04:55:08;11.70;96.00
70107;DHT22;57473;37.508;15.080;2023-04-03T04:57:36;11.80;95.80
70107;DHT22;57473;37.508;15.080;2023-04-03T05:00:07;11.80;95.50
70107;DHT22;57473;37.508;15.080;2023-04-03T05:02:34;11.80;95.80
70107;DHT22;57473;37.508;15.080;2023-04-03T05:05:02;11.80;95.90
70107;DHT22;57473;37.508;15.080;2023-04-03T05:07:32;11.90;95.70
70107;DHT22;57473;37.508;15.080;2023-04-03T05:10:00;12.00;95.20
70107;DHT22;57473;37.508;15.080;2023-04-03T05:12:28;12.00;95.10
70107;DHT22;57473;37.508;15.080;2023-04-03T05:14:59;12.10;95.20
70107;DHT22;57473;37.508;15.080;2023-04-03T05:17:30;12.10;94.00
70107;DHT22;57473;37.508;15.080;2023-04-03T05:19:58;12.10;93.20
70107;DHT22;57473;37.508;15.080;2023-04-03T05:22:27;12.10;93.70
70107;DHT22;57473;37.508;15.080;2023-04-03T05:24:59;12.10;94.00
70107;DHT22;57473;37.508;15.080;2023-04-03T05:27:27;12.10;93.70
70107;DHT22;57473;37.508;15.080;2023-04-03T05:29:57;12.20;94.40
70107;DHT22;57473;37.508;15.080;2023-04-03T05:32:25;12.20;95.20
70107;DHT22;57473;37.508;15.080;2023-04-03T05:35:10;12.40;95.10
70107;DHT22;57473;37.508;15.080;2023-04-03T05:37:39;12.50;94.70
70107;DHT22;57473;37.508;15.080;2023-04-03T05:40:07;12.60;93.30
70107;DHT22;57473;37.508;15.080;2023-04-03T05:42:36;12.60;93.30
70107;DHT22;57473;37.508;15.080;2023-04-03T05:45:05;12.70;92.80
70107;DHT22;57473;37.508;15.080;2023-04-03T05:47:33;12.80;93.50
70107;DHT22;57473;37.508;15.080;2023-04-03T05:50:00;12.80;93.80
70107;DHT22;57473;37.508;15.080;2023-04-03T05:52:30;12.90;94.10
70107;DHT22;57473;37.508;15.080;2023-04-03T05:55:00;13.10;93.60
70107;DHT22;57473;37.508;15.080;2023-04-03T05:57:30;13.20;92.50
70107;DHT22;57473;37.508;15.080;2023-04-03T05:59:57;13.40;90.30
70107;DHT22;57473;37.508;15.080;2023-04-03T06:02:25;13.40;89.20
70107;DHT22;57473;37.508;15.080;2023-04-03T06:04:54;13.40;88.90
70107;DHT22;57473;37.508;15.080;2023-04-03T06:07:23;13.60;86.90
70107;DHT22;57473;37.508;15.080;2023-04-03T06:09:51;13.80;87.10
70107;DHT22;57473;37.508;15.080;2023-04-03T06:12:19;13.90;86.80
70107;DHT22;57473;37.508;15.080;2023-04-03T06:14:47;14.10;86.20
70107;DHT22;57473;37.508;15.080;2023-04-03T06:17:15;14.20;84.50
70107;DHT22;57473;37.508;15.080;2023-04-03T06:19:45;14.10;85.00
70107;DHT22;57473;37.508;15.080;2023-04-03T06:22:13;14.20;84.80
70107;DHT22;57473;37.508;15.080;2023-04-03T06:24:41;14.20;85.40
70107;DHT22;57473;37.508;15.080;2023-04-03T06:27:09;14.20;84.60
70107;DHT22;57473;37.508;15.080;2023-04-03T06:29:38;14.20;85.50
70107;DHT22;57473;37.508;15.080;2023-04-03T06:32:05;14.40;85.00
70107;DHT22;57473;37.508;15.080;2023-04-03T06:34:33;14.50;83.30
70107;DHT22;57473;37.508;15.080;2023-04-03T06:37:00;14.40;84.20
70107;DHT22;57473;37.508;15.080;2023-04-03T06:39:27;14.50;83.70
70107;DHT22;57473;37.508;15.080;2023-04-03T06:41:55;14.60;84.00
70107;DHT22;57473;37.508;15.080;2023-04-03T06:44:32;14.50;83.20
70107;DHT22;57473;37.508;15.080;2023-04-03T06:47:01;14.60;83.10
70107;DHT22;57473;37.508;15.080;2023-04-03T06:49:29;14.70;83.40
70107;DHT22;57473;37.508;15.080;2023-04-03T06:51:56;14.80;81.90
70107;DHT22;57473;37.508;15.080;2023-04-03T06:54:25;14.60;82.70
70107;DHT22;57473;37.508;15.080;2023-04-03T06:56:52;14.60;83.30
70107;DHT22;57473;37.508;15.080;2023-04-03T06:59:19;14.60;83.00
70107;DHT22;57473;37.508;15.080;2023-04-03T07:01:47;14.60;81.90
70107;DHT22;57473;37.508;15.080;2023-04-03T07:04:15;14.60;83.10
70107;DHT22;57473;37.508;15.080;2023-04-03T07:06:42;14.50;82.80
70107;DHT22;57473;37.508;15.080;2023-04-03T07:09:10;14.60;81.90
70107;DHT22;57473;37.508;15.080;2023-04-03T07:11:37;14.60;82.30
70107;DHT22;57473;37.508;15.080;2023-04-03T07:14:05;14.70;81.20
70107;DHT22;57473;37.508;15.080;2023-04-03T07:16:35;14.70;80.80
70107;DHT22;57473;37.508;15.080;2023-04-03T07:19:05;14.70;81.30
70107;DHT22;57473;37.508;15.080;2023-04-03T07:21:32;14.70;81.70
70107;DHT22;57473;37.508;15.080;2023-04-03T07:23:59;14.70;82.70
70107;DHT22;57473;37.508;15.080;2023-04-03T07:26:27;14.60;82.60
70107;DHT22;57473;37.508;15.080;2023-04-03T07:28:54;14.60;82.10
70107;DHT22;57473;37.508;15.080;2023-04-03T07:31:22;14.70;81.50
70107;DHT22;57473;37.508;15.080;2023-04-03T07:33:50;14.70;80.50
70107;DHT22;57473;37.508;15.080;2023-04-03T07:36:19;14.90;78.90
70107;DHT22;57473;37.508;15.080;2023-04-03T07:38:48;14.80;79.90
70107;DHT22;57473;37.508;15.080;2023-04-03T07:41:17;14.80;77.90
70107;DHT22;57473;37.508;15.080;2023-04-03T07:43:45;14.80;77.50
70107;DHT22;57473;37.508;15.080;2023-04-03T07:46:13;15.00;77.60
70107;DHT22;57473;37.508;15.080;2023-04-03T07:48:40;15.10;77.10
70107;DHT22;57473;37.508;15.080;2023-04-03T07:51:08;15.10;74.00
70107;DHT22;57473;37.508;15.080;2023-04-03T07:53:35;15.20;73.80
70107;DHT22;57473;37.508;15.080;2023-04-03T07:56:03;15.00;71.40
70107;DHT22;57473;37.508;15.080;2023-04-03T07:58:30;14.90;71.70
70107;DHT22;57473;37.508;15.080;2023-04-03T08:00:57;15.00;71.20
70107;DHT22;57473;37.508;15.080;2023-04-03T08:03:24;15.20;70.90
70107;DHT22;57473;37.508;15.080;2023-04-03T08:05:52;15.30;71.70
70107;DHT22;57473;37.508;15.080;2023-04-03T08:08:22;15.30;70.30
70107;DHT22;57473;37.508;15.080;2023-04-03T08:10:53;15.20;70.60
70107;DHT22;57473;37.508;15.080;2023-04-03T08:13:22;15.10;71.20
70107;DHT22;57473;37.508;15.080;2023-04-03T08:15:49;14.80;71.20
70107;DHT22;57473;37.508;15.080;2023-04-03T08:18:18;14.80;71.80
70107;DHT22;57473;37.508;15.080;2023-04-03T08:20:48;14.80;72.40
70107;DHT22;57473;37.508;15.080;2023-04-03T08:23:15;14.70;72.70
70107;DHT22;57473;37.508;15.080;2023-04-03T08:25:46;14.60;73.60
70107;DHT22;57473;37.508;15.080;2023-04-03T08:28:13;14.60;72.60
70107;DHT22;57473;37.508;15.080;2023-04-03T08:30:41;14.50;73.10
70107;DHT22;57473;37.508;15.080;2023-04-03T08:33:10;14.60;73.90
70107;DHT22;57473;37.508;15.080;2023-04-03T08:35:41;14.70;74.50
70107;DHT22;57473;37.508;15.080;2023-04-03T08:38:10;14.80;75.40
70107;DHT22;57473;37.508;15.080;2023-04-03T08:40:45;14.80;75.30
70107;DHT22;57473;37.508;15.080;2023-04-03T08:43:38;14.60;75.00
70107;DHT22;57473;37.508;15.080;2023-04-03T08:46:11;14.50;75.40
70107;DHT22;57473;37.508;15.080;2023-04-03T08:48:42;14.50;78.30
70107;DHT22;57473;37.508;15.080;2023-04-03T08:51:16;14.40;76.60
70107;DHT22;57473;37.508;15.080;2023-04-03T08:53:55;14.50;76.30
70107;DHT22;57473;37.508;15.080;2023-04-03T08:56:24;14.50;76.50
70107;DHT22;57473;37.508;15.080;2023-04-03T08:59:06;14.40;77.20
70107;DHT22;57473;37.508;15.080;2023-04-03T09:01:39;14.20;77.10
70107;DHT22;57473;37.508;15.080;2023-04-03T09:04:12;14.10;78.80
70107;DHT22;57473;37.508;15.080;2023-04-03T09:06:44;14.10;78.00
70107;DHT22;57473;37.508;15.080;2023-04-03T09:09:14;14.20;79.70
70107;DHT22;57473;37.508;15.080;2023-04-03T09:12:00;14.40;79.30
70107;DHT22;57473;37.508;15.080;2023-04-03T09:22:50;14.50;78.90
70107;DHT22;57473;37.508;15.080;2023-04-03T09:25:34;14.40;79.00
70107;DHT22;57473;37.508;15.080;2023-04-03T09:28:03;14.40;78.90
70107;DHT22;57473;37.508;15.080;2023-04-03T09:30:37;14.50;78.90
70107;DHT22;57473;37.508;15.080;2023-04-03T09:33:05;14.20;78.80
70107;DHT22;57473;37.508;15.080;2023-04-03T09:35:37;14.00;80.60
70107;DHT22;57473;37.508;15.080;2023-04-03T09:38:17;14.10;80.10
70107;DHT22;57473;37.508;15.080;2023-04-03T09:40:47;14.10;82.00
70107;DHT22;57473;37.508;15.080;2023-04-03T09:43:27;14.20;81.80
70107;DHT22;57473;37.508;15.080;2023-04-03T09:46:15;14.40;80.60
70107;DHT22;57473;37.508;15.080;2023-04-03T09:48:57;14.50;81.50
70107;DHT22;57473;37.508;15.080;2023-04-03T09:51:35;14.70;82.20
70107;DHT22;57473;37.508;15.080;2023-04-03T09:54:35;14.80;81.10
70107;DHT22;57473;37.508;15.080;2023-04-03T09:57:10;15.00;79.50
70107;DHT22;57473;37.508;15.080;2023-04-03T09:59:56;14.90;80.10
70107;DHT22;57473;37.508;15.080;2023-04-03T10:02:36;14.80;80.60
70107;DHT22;57473;37.508;15.080;2023-04-03T10:11:05;15.10;77.10
70107;DHT22;57473;37.508;15.080;2023-04-03T10:13:27;15.10;76.30
70107;DHT22;57473;37.508;15.080;2023-04-03T10:21:40;15.30;77.10
70107;DHT22;57473;37.508;15.080;2023-04-03T10:24:21;15.50;75.30
70107;DHT22;57473;37.508;15.080;2023-04-03T10:32:41;14.70;76.40
70107;DHT22;57473;37.508;15.080;2023-04-03T10:38:38;14.60;79.90
70107;DHT22;57473;37.508;15.080;2023-04-03T10:46:56;14.70;84.40
70107;DHT22;57473;37.508;15.080;2023-04-03T10:55:50;14.50;83.40
70107;DHT22;57473;37.508;15.080;2023-04-03T10:58:34;14.50;84.90
70107;DHT22;57473;37.508;15.080;2023-04-03T11:01:07;14.70;83.70
70107;DHT22;57473;37.508;15.080;2023-04-03T11:03:39;14.80;83.90
70107;DHT22;57473;37.508;15.080;2023-04-03T11:06:11;14.80;81.20
70107;DHT22;57473;37.508;15.080;2023-04-03T11:08:50;14.90;81.70
70107;DHT22;57473;37.508;15.080;2023-04-03T11:11:25;15.00;78.50
70107;DHT22;57473;37.508;15.080;2023-04-03T11:17:02;14.90;80.40
70107;DHT22;57473;37.508;15.080;2023-04-03T11:22:25;14.60;82.10
70107;DHT22;57473;37.508;15.080;2023-04-03T11:28:04;14.50;83.20
70107;DHT22;57473;37.508;15.080;2023-04-03T11:33:21;14.70;82.40
70107;DHT22;57473;37.508;15.080;2023-04-03T11:35:57;14.70;82.10
70107;DHT22;57473;37.508;15.080;2023-04-03T11:38:33;14.70;79.60
70107;DHT22;57473;37.508;15.080;2023-04-03T11:41:04;14.70;78.40
70107;DHT22;57473;37.508;15.080;2023-04-03T11:43:34;14.70;77.10
70107;DHT22;57473;37.508;15.080;2023-04-03T11:46:07;14.60;76.10
70107;DHT22;57473;37.508;15.080;2023-04-03T11:53:44;14.90;76.90
70107;DHT22;57473;37.508;15.080;2023-04-03T12:04:23;15.40;71.30
70107;DHT22;57473;37.508;15.080;2023-04-03T12:07:11;15.20;69.80
70107;DHT22;57473;37.508;15.080;2023-04-03T12:12:39;15.30;70.40
70107;DHT22;57473;37.508;15.080;2023-04-03T12:15:49;15.30;69.90
70107;DHT22;57473;37.508;15.080;2023-04-03T12:18:43;15.70;69.90
70107;DHT22;57473;37.508;15.080;2023-04-03T12:21:13;15.90;70.50
70107;DHT22;57473;37.508;15.080;2023-04-03T12:45:21;17.50;61.70
70107;DHT22;57473;37.508;15.080;2023-04-03T12:47:52;17.40;58.80
70107;DHT22;57473;37.508;15.080;2023-04-03T12:50:30;17.50;57.70
70107;DHT22;57473;37.508;15.080;2023-04-03T12:53:11;17.70;58.60
70107;DHT22;57473;37.508;15.080;2023-04-03T12:55:39;17.90;59.00
70107;DHT22;57473;37.508;15.080;2023-04-03T12:58:27;18.20;59.30
70107;DHT22;57473;37.508;15.080;2023-04-03T13:01:16;18.40;58.60
70107;DHT22;57473;37.508;15.080;2023-04-03T13:03:48;18.50;59.20
70107;DHT22;57473;37.508;15.080;2023-04-03T13:06:48;18.70;58.60
70107;DHT22;57473;37.508;15.080;2023-04-03T13:09:30;19.00;56.60
70107;DHT22;57473;37.508;15.080;2023-04-03T13:12:00;19.30;56.30
70107;DHT22;57473;37.508;15.080;2023-04-03T13:14:28;19.00;57.80
70107;DHT22;57473;37.508;15.080;2023-04-03T13:19:28;18.30;60.30
70107;DHT22;57473;37.508;15.080;2023-04-03T13:22:01;18.00;61.70
70107;DHT22;57473;37.508;15.080;2023-04-03T13:24:34;17.30;63.80
70107;DHT22;57473;37.508;15.080;2023-04-03T13:27:04;17.10;63.80
70107;DHT22;57473;37.508;15.080;2023-04-03T13:29:35;16.50;65.80
70107;DHT22;57473;37.508;15.080;2023-04-03T13:32:03;16.30;67.60
70107;DHT22;57473;37.508;15.080;2023-04-03T13:34:41;16.70;67.10
70107;DHT22;57473;37.508;15.080;2023-04-03T13:37:30;16.90;65.60
70107;DHT22;57473;37.508;15.080;2023-04-03T13:42:40;16.60;65.60
70107;DHT22;57473;37.508;15.080;2023-04-03T13:47:42;16.60;64.80
70107;DHT22;57473;37.508;15.080;2023-04-03T13:50:25;16.50;66.00
70107;DHT22;57473;37.508;15.080;2023-04-03T13:52:59;16.40;66.50
70107;DHT22;57473;37.508;15.080;2023-04-03T13:55:31;16.50;65.60
70107;DHT22;57473;37.508;15.080;2023-04-03T13:58:22;16.40;64.50
70107;DHT22;57473;37.508;15.080;2023-04-03T14:00:55;16.40;64.40
70107;DHT22;57473;37.508;15.080;2023-04-03T14:03:29;16.50;63.20
70107;DHT22;57473;37.508;15.080;2023-04-03T14:05:57;16.70;62.20
70107;DHT22;57473;37.508;15.080;2023-04-03T14:08:26;16.90;60.70
70107;DHT22;57473;37.508;15.080;2023-04-03T14:11:22;17.20;58.60
70107;DHT22;57473;37.508;15.080;2023-04-03T14:13:51;17.10;57.80
70107;DHT22;57473;37.508;15.080;2023-04-03T14:16:20;17.00;58.60
70107;DHT22;57473;37.508;15.080;2023-04-03T14:18:49;17.00;58.90
70107;DHT22;57473;37.508;15.080;2023-04-03T14:21:19;17.00;58.60
70107;DHT22;57473;37.508;15.080;2023-04-03T14:23:47;17.00;58.90
70107;DHT22;57473;37.508;15.080;2023-04-03T14:26:18;17.10;58.80
70107;DHT22;57473;37.508;15.080;2023-04-03T14:28:50;16.90;59.30
70107;DHT22;57473;37.508;15.080;2023-04-03T14:31:19;16.90;60.50
70107;DHT22;57473;37.508;15.080;2023-04-03T14:33:47;16.80;60.00
70107;DHT22;57473;37.508;15.080;2023-04-03T14:36:18;16.50;60.20
70107;DHT22;57473;37.508;15.080;2023-04-03T14:38:47;16.20;62.00
70107;DHT22;57473;37.508;15.080;2023-04-03T14:41:18;16.10;62.00
70107;DHT22;57473;37.508;15.080;2023-04-03T14:43:47;15.80;62.60
70107;DHT22;57473;37.508;15.080;2023-04-03T14:46:18;15.70;63.20
70107;DHT22;57473;37.508;15.080;2023-04-03T14:48:46;15.60;63.70
70107;DHT22;57473;37.508;15.080;2023-04-03T14:51:15;15.60;63.50
70107;DHT22;57473;37.508;15.080;2023-04-03T14:53:43;15.70;63.80
70107;DHT22;57473;37.508;15.080;2023-04-03T14:56:23;15.70;63.70
70107;DHT22;57473;37.508;15.080;2023-04-03T14:58:56;15.70;64.30
70107;DHT22;57473;37.508;15.080;2023-04-03T15:01:25;15.80;64.60
70107;DHT22;57473;37.508;15.080;2023-04-03T15:03:53;15.80;64.50
70107;DHT22;57473;37.508;15.080;2023-04-03T15:06:21;15.80;65.00
70107;DHT22;57473;37.508;15.080;2023-04-03T15:08:49;15.80;65.00
70107;DHT22;57473;37.508;15.080;2023-04-03T15:11:16;15.50;66.00
70107;DHT22;57473;37.508;15.080;2023-04-03T15:13:44;15.50;65.60
70107;DHT22;57473;37.508;15.080;2023-04-03T15:16:17;15.60;65.20
70107;DHT22;57473;37.508;15.080;2023-04-03T15:18:45;15.50;64.90
70107;DHT22;57473;37.508;15.080;2023-04-03T15:21:14;15.50;64.90
70107;DHT22;57473;37.508;15.080;2023-04-03T15:23:41;15.40;65.10
70107;DHT22;57473;37.508;15.080;2023-04-03T15:26:09;15.50;63.90
70107;DHT22;57473;37.508;15.080;2023-04-03T15:28:42;15.60;62.70
70107;DHT22;57473;37.508;15.080;2023-04-03T15:31:10;15.70;63.00
70107;DHT22;57473;37.508;15.080;2023-04-03T15:33:38;15.60;63.10
70107;DHT22;57473;37.508;15.080;2023-04-03T15:36:06;15.60;62.40
70107;DHT22;57473;37.508;15.080;2023-04-03T15:38:53;15.70;61.90
70107;DHT22;57473;37.508;15.080;2023-04-03T15:41:21;15.80;62.00
70107;DHT22;57473;37.508;15.080;2023-04-03T15:43:48;16.00;62.00
70107;DHT22;57473;37.508;15.080;2023-04-03T15:46:15;16.00;61.20
70107;DHT22;57473;37.508;15.080;2023-04-03T15:48:43;16.00;61.00
70107;DHT22;57473;37.508;15.080;2023-04-03T15:51:11;16.00;60.90
70107;DHT22;57473;37.508;15.080;2023-04-03T15:53:39;16.00;61.00
70107;DHT22;57473;37.508;15.080;2023-04-03T15:56:07;16.00;62.40
70107;DHT22;57473;37.508;15.080;2023-04-03T15:58:36;15.90;62.50
70107;DHT22;57473;37.508;15.080;2023-04-03T16:01:03;15.80;63.00
70107;DHT22;57473;37.508;15.080;2023-04-03T16:03:34;15.80;63.50
70107;DHT22;57473;37.508;15.080;2023-04-03T16:06:02;15.80;63.70
70107;DHT22;57473;37.508;15.080;2023-04-03T16:08:30;15.70;63.50
70107;DHT22;57473;37.508;15.080;2023-04-03T16:10:57;15.70;63.00
70107;DHT22;57473;37.508;15.080;2023-04-03T16:13:24;15.60;63.80
70107;DHT22;57473;37.508;15.080;2023-04-03T16:15:53;15.60;63.70
70107;DHT22;57473;37.508;15.080;2023-04-03T16:18:21;15.50;64.90
70107;DHT22;57473;37.508;15.080;2023-04-03T16:20:49;15.50;65.80
70107;DHT22;57473;37.508;15.080;2023-04-03T16:23:17;15.40;65.90
70107;DHT22;57473;37.508;15.080;2023-04-03T16:25:49;15.40;65.80
70107;DHT22;57473;37.508;15.080;2023-04-03T16:28:17;15.40;65.70
70107;DHT22;57473;37.508;15.080;2023-04-03T16:30:47;15.30;66.70
70107;DHT22;57473;37.508;15.080;2023-04-03T16:33:15;15.20;67.20
70107;DHT22;57473;37.508;15.080;2023-04-03T16:35:42;15.20;67.90
70107;DHT22;57473;37.508;15.080;2023-04-03T16:38:10;15.20;68.10
70107;DHT22;57473;37.508;15.080;2023-04-03T16:40:38;15.10;69.20
70107;DHT22;57473;37.508;15.080;2023-04-03T16:43:05;15.10;68.70
70107;DHT22;57473;37.508;15.080;2023-04-03T16:45:32;15.10;69.80
70107;DHT22;57473;37.508;15.080;2023-04-03T16:48:00;15.10;69.70
70107;DHT22;57473;37.508;15.080;2023-04-03T16:50:28;15.10;68.60
70107;DHT22;57473;37.508;15.080;2023-04-03T16:52:56;15.10;67.20
70107;DHT22;57473;37.508;15.080;2023-04-03T16:55:23;15.10;65.20
70107;DHT22;57473;37.508;15.080;2023-04-03T16:57:50;15.10;65.20
70107;DHT22;57473;37.508;15.080;2023-04-03T17:00:17;15.20;65.10
70107;DHT22;57473;37.508;15.080;2023-04-03T17:02:45;15.20;66.20
70107;DHT22;57473;37.508;15.080;2023-04-03T17:05:12;15.20;66.20
70107;DHT22;57473;37.508;15.080;2023-04-03T17:07:40;15.20;65.40
70107;DHT22;57473;37.508;15.080;2023-04-03T17:10:08;15.20;64.00
70107;DHT22;57473;37.508;15.080;2023-04-03T17:12:35;15.20;62.70
70107;DHT22;57473;37.508;15.080;2023-04-03T17:15:03;15.20;62.60
70107;DHT22;57473;37.508;15.080;2023-04-03T17:17:30;15.20;63.40
70107;DHT22;57473;37.508;15.080;2023-04-03T17:19:58;15.20;64.30